sensor_id;sensor_type;location;lat;lon;timestamp;pressure;altitude;pressure_sealevel;temperature;humidity
30021;BME280;16861;52.294;7.760;2023-07-31T00:02:14;99181.53;;;19.05;61.61
30021;BME280;16861;52.294;7.760;2023-07-31T00:04:40;99178.16;;;19.03;61.82
30021;BME280;16861;52.294;7.760;2023-07-31T00:07:07;99175.78;;;19.00;61.59
30021;BME280;16861;52.294;7.760;2023-07-31T00:09:34;99173.44;;;18.97;62.00
30021;BME280;16861;52.294;7.760;2023-07-31T00:12:00;99174.44;;;18.96;61.72
30021;BME280;16861;52.294;7.760;2023-07-31T00:14:27;99171.91;;;18.94;62.06
30021;BME280;16861;52.294;7.760;2023-07-31T00:16:54;99168.59;;;18.92;62.18
30021;BME280;16861;52.294;7.760;2023-07-31T00:19:20;99174.88;;;18.91;62.54
30021;BME280;16861;52.294;7.760;2023-07-31T00:21:47;99176.03;;;18.88;62.35
30021;BME280;16861;52.294;7.760;2023-07-31T00:24:13;99166.53;;;18.86;62.40
30021;BME280;16861;52.294;7.760;2023-07-31T00:26:40;99165.72;;;18.85;62.56
30021;BME280;16861;52.294;7.760;2023-07-31T00:29:07;99162.34;;;18.83;62.73
30021;BME280;16861;52.294;7.760;2023-07-31T00:31:34;99166.81;;;18.83;62.41
30021;BME280;16861;52.294;7.760;2023-07-31T00:34:00;99164.34;;;18.81;62.47
30021;BME280;16861;52.294;7.760;2023-07-31T00:36:27;99162.78;;;18.79;62.89
30021;BME280;16861;52.294;7.760;2023-07-31T00:38:53;99154.28;;;18.75;62.45
30021;BME280;16861;52.294;7.760;2023-07-31T00:41:20;99153.63;;;18.73;63.08
30021;BME280;16861;52.294;7.760;2023-07-31T00:43:46;99152.91;;;18.71;62.94
30021;BME280;16861;52.294;7.760;2023-07-31T00:46:13;99149.59;;;18.69;63.01
30021;BME280;16861;52.294;7.760;2023-07-31T00:48:40;99146.22;;;18.67;62.69
30021;BME280;16861;52.294;7.760;2023-07-31T00:51:07;99148.22;;;18.65;63.11
30021;BME280;16861;52.294;7.760;2023-07-31T00:53:35;99144.84;;;18.62;62.97
30021;BME280;16861;52.294;7.760;2023-07-31T00:56:02;99147.53;;;18.62;62.73
30021;BME280;16861;52.294;7.760;2023-07-31T00:58:29;99156.66;;;18.60;62.72
30021;BME280;16861;52.294;7.760;2023-07-31T01:00:56;99148.81;;;18.58;63.09
30021;BME280;16861;52.294;7.760;2023-07-31T01:03:22;99139.16;;;18.57;63.38
30021;BME280;16861;52.294;7.760;2023-07-31T01:08:54;99136.13;;;18.52;64.57
30021;BME280;16861;52.294;7.760;2023-07-31T01:11:30;99128.13;;;18.52;64.32
30021;BME280;16861;52.294;7.760;2023-07-31T01:13:57;99121.97;;;18.52;63.79
30021;BME280;16861;52.294;7.760;2023-07-31T01:16:25;99126.47;;;18.51;63.45
30021;BME280;16861;52.294;7.760;2023-07-31T01:18:52;99129.13;;;18.51;63.58
30021;BME280;16861;52.294;7.760;2023-07-31T01:26:28;99119.44;;;18.50;64.51
30021;BME280;16861;52.294;7.760;2023-07-31T01:29:01;99119.44;;;18.50;64.47
30021;BME280;16861;52.294;7.760;2023-07-31T01:31:29;99121.13;;;18.51;63.52
30021;BME280;16861;52.294;7.760;2023-07-31T01:34:00;99118.00;;;18.56;63.69
30021;BME280;16861;52.294;7.760;2023-07-31T01:36:28;99117.16;;;18.55;63.26
30021;BME280;16861;52.294;7.760;2023-07-31T01:39:00;99112.16;;;18.52;64.19
30021;BME280;16861;52.294;7.760;2023-07-31T01:41:27;99104.16;;;18.52;63.46
30021;BME280;16861;52.294;7.760;2023-07-31T01:43:54;99101.78;;;18.49;63.21
30021;BME280;16861;52.294;7.760;2023-07-31T01:46:20;99104.59;;;18.47;63.42
30021;BME280;16861;52.294;7.760;2023-07-31T01:48:47;99103.94;;;18.45;63.30
30021;BME280;16861;52.294;7.760;2023-07-31T01:51:13;99100.72;;;18.42;63.31
30021;BME280;16861;52.294;7.760;2023-07-31T01:53:40;99103.56;;;18.40;63.43
30021;BME280;16861;52.294;7.760;2023-07-31T01:56:06;99096.53;;;18.39;63.89
30021;BME280;16861;52.294;7.760;2023-07-31T01:58:33;99101.19;;;18.37;63.83
30021;BME280;16861;52.294;7.760;2023-07-31T02:01:00;99097.69;;;18.36;63.83
30021;BME280;16861;52.294;7.760;2023-07-31T02:03:26;99096.03;;;18.35;64.09
30021;BME280;16861;52.294;7.760;2023-07-31T02:05:53;99093.34;;;18.35;64.00
30021;BME280;16861;52.294;7.760;2023-07-31T02:08:20;99089.69;;;18.36;64.52
30021;BME280;16861;52.294;7.760;2023-07-31T02:13:31;99091.41;;;18.38;64.17
30021;BME280;16861;52.294;7.760;2023-07-31T02:15:57;99090.41;;;18.39;64.50
30021;BME280;16861;52.294;7.760;2023-07-31T02:18:24;99085.88;;;18.39;64.50
30021;BME280;16861;52.294;7.760;2023-07-31T02:20:51;99077.88;;;18.39;64.46
30021;BME280;16861;52.294;7.760;2023-07-31T02:23:19;99080.75;;;18.38;64.36
30021;BME280;16861;52.294;7.760;2023-07-31T02:25:46;99081.72;;;18.36;64.40
30021;BME280;16861;52.294;7.760;2023-07-31T02:28:12;99080.88;;;18.36;64.36
30021;BME280;16861;52.294;7.760;2023-07-31T02:30:39;99085.53;;;18.34;64.49
30021;BME280;16861;52.294;7.760;2023-07-31T02:33:06;99079.53;;;18.32;64.81
30021;BME280;16861;52.294;7.760;2023-07-31T02:35:32;99084.00;;;18.31;64.51
30021;BME280;16861;52.294;7.760;2023-07-31T02:37:59;99080.66;;;18.29;64.57
30021;BME280;16861;52.294;7.760;2023-07-31T02:40:26;99081.81;;;18.27;64.70
30021;BME280;16861;52.294;7.760;2023-07-31T02:42:52;99076.63;;;18.25;64.78
30021;BME280;16861;52.294;7.760;2023-07-31T02:45:19;99075.94;;;18.23;65.06
30021;BME280;16861;52.294;7.760;2023-07-31T02:47:46;99068.09;;;18.21;65.23
30021;BME280;16861;52.294;7.760;2023-07-31T02:50:12;99068.09;;;18.21;65.34
30021;BME280;16861;52.294;7.760;2023-07-31T02:52:39;99066.44;;;18.20;65.29
30021;BME280;16861;52.294;7.760;2023-07-31T02:55:06;99067.28;;;18.21;65.45
30021;BME280;16861;52.294;7.760;2023-07-31T02:57:32;99062.91;;;18.20;65.13
30021;BME280;16861;52.294;7.760;2023-07-31T02:59:59;99054.94;;;18.20;65.88
30021;BME280;16861;52.294;7.760;2023-07-31T03:02:26;99055.94;;;18.19;65.70
30021;BME280;16861;52.294;7.760;2023-07-31T03:04:53;99051.59;;;18.18;65.85
30021;BME280;16861;52.294;7.760;2023-07-31T03:07:19;99053.25;;;18.19;65.84
30021;BME280;16861;52.294;7.760;2023-07-31T03:09:46;99047.94;;;18.19;65.91
30021;BME280;16861;52.294;7.760;2023-07-31T03:12:13;99044.28;;;18.20;66.07
30021;BME280;16861;52.294;7.760;2023-07-31T03:14:39;99035.47;;;18.19;65.99
30021;BME280;16861;52.294;7.760;2023-07-31T03:17:06;99032.66;;;18.21;66.24
30021;BME280;16861;52.294;7.760;2023-07-31T03:19:33;99041.31;;;18.23;66.52
30021;BME280;16861;52.294;7.760;2023-07-31T03:21:59;99029.66;;;18.24;66.58
30021;BME280;16861;52.294;7.760;2023-07-31T03:24:26;99033.03;;;18.26;66.41
30021;BME280;16861;52.294;7.760;2023-07-31T03:26:54;99033.69;;;18.28;66.84
30021;BME280;16861;52.294;7.760;2023-07-31T03:29:21;99030.06;;;18.29;66.82
30021;BME280;16861;52.294;7.760;2023-07-31T03:31:50;99025.38;;;18.31;66.82
30021;BME280;16861;52.294;7.760;2023-07-31T03:34:16;99011.91;;;18.33;66.87
30021;BME280;16861;52.294;7.760;2023-07-31T03:36:43;99018.91;;;18.34;66.97
30021;BME280;16861;52.294;7.760;2023-07-31T03:39:10;99019.75;;;18.34;67.11
30021;BME280;16861;52.294;7.760;2023-07-31T03:41:37;99007.09;;;18.36;67.30
30021;BME280;16861;52.294;7.760;2023-07-31T03:44:03;99004.44;;;18.36;67.56
30021;BME280;16861;52.294;7.760;2023-07-31T03:46:30;99007.78;;;18.39;67.67
30021;BME280;16861;52.294;7.760;2023-07-31T03:48:57;99001.47;;;18.40;67.71
30021;BME280;16861;52.294;7.760;2023-07-31T03:51:24;99002.13;;;18.42;67.74
30021;BME280;16861;52.294;7.760;2023-07-31T03:53:50;99012.50;;;18.45;68.33
30021;BME280;16861;52.294;7.760;2023-07-31T03:56:17;99009.66;;;18.46;68.27
30021;BME280;16861;52.294;7.760;2023-07-31T03:58:43;99012.03;;;18.49;68.39
30021;BME280;16861;52.294;7.760;2023-07-31T04:01:10;99006.53;;;18.51;68.01
30021;BME280;16861;52.294;7.760;2023-07-31T04:03:37;99010.03;;;18.52;68.20
30021;BME280;16861;52.294;7.760;2023-07-31T04:06:03;99004.53;;;18.53;68.59
30021;BME280;16861;52.294;7.760;2023-07-31T04:08:30;99010.56;;;18.55;68.43
30021;BME280;16861;52.294;7.760;2023-07-31T04:10:57;99007.72;;;18.57;68.38
30021;BME280;16861;52.294;7.760;2023-07-31T04:13:23;99010.22;;;18.58;68.57
30021;BME280;16861;52.294;7.760;2023-07-31T04:15:50;99018.91;;;18.60;68.69
30021;BME280;16861;52.294;7.760;2023-07-31T04:18:17;99025.06;;;18.61;68.90
30021;BME280;16861;52.294;7.760;2023-07-31T04:20:44;99009.91;;;18.61;68.73
30021;BME280;16861;52.294;7.760;2023-07-31T04:23:11;99011.59;;;18.62;68.85
30021;BME280;16861;52.294;7.760;2023-07-31T04:25:37;99014.25;;;18.62;68.70
30021;BME280;16861;52.294;7.760;2023-07-31T04:28:04;99015.94;;;18.64;68.91
30021;BME280;16861;52.294;7.760;2023-07-31T04:30:31;99016.91;;;18.62;69.01
30021;BME280;16861;52.294;7.760;2023-07-31T04:32:58;99025.75;;;18.63;68.79
30021;BME280;16861;52.294;7.760;2023-07-31T04:35:25;99019.59;;;18.62;69.11
30021;BME280;16861;52.294;7.760;2023-07-31T04:37:51;99022.25;;;18.62;69.25
30021;BME280;16861;52.294;7.760;2023-07-31T04:40:18;99019.72;;;18.61;68.93
30021;BME280;16861;52.294;7.760;2023-07-31T04:42:44;99022.41;;;18.61;69.04
30021;BME280;16861;52.294;7.760;2023-07-31T04:45:11;99019.91;;;18.59;69.44
30021;BME280;16861;52.294;7.760;2023-07-31T04:47:37;99020.06;;;18.58;69.32
30021;BME280;16861;52.294;7.760;2023-07-31T04:50:05;99023.72;;;18.57;69.43
30021;BME280;16861;52.294;7.760;2023-07-31T04:52:31;99021.22;;;18.55;69.62
30021;BME280;16861;52.294;7.760;2023-07-31T04:54:58;99027.69;;;18.53;69.42
30021;BME280;16861;52.294;7.760;2023-07-31T04:57:25;99025.00;;;18.53;69.40
30021;BME280;16861;52.294;7.760;2023-07-31T04:59:51;99030.53;;;18.51;69.64
30021;BME280;16861;52.294;7.760;2023-07-31T05:02:18;99033.19;;;18.51;69.64
30021;BME280;16861;52.294;7.760;2023-07-31T05:04:45;99041.19;;;18.51;69.73
30021;BME280;16861;52.294;7.760;2023-07-31T05:07:11;99024.50;;;18.49;69.55
30021;BME280;16861;52.294;7.760;2023-07-31T05:09:38;99023.50;;;18.50;69.64
30021;BME280;16861;52.294;7.760;2023-07-31T05:12:05;99017.19;;;18.51;69.56
30021;BME280;16861;52.294;7.760;2023-07-31T05:14:32;99020.69;;;18.52;69.89
30021;BME280;16861;52.294;7.760;2023-07-31T05:16:59;99015.19;;;18.53;69.76
30021;BME280;16861;52.294;7.760;2023-07-31T05:19:25;99019.53;;;18.54;69.51
30021;BME280;16861;52.294;7.760;2023-07-31T05:21:52;99010.56;;;18.55;69.78
30021;BME280;16861;52.294;7.760;2023-07-31T05:24:19;99006.91;;;18.56;69.67
30021;BME280;16861;52.294;7.760;2023-07-31T05:26:45;99006.91;;;18.56;69.93
30021;BME280;16861;52.294;7.760;2023-07-31T05:29:12;99005.91;;;18.57;69.68
30021;BME280;16861;52.294;7.760;2023-07-31T05:31:39;99017.56;;;18.56;69.73
30021;BME280;16861;52.294;7.760;2023-07-31T05:34:05;99013.91;;;18.57;69.44
30021;BME280;16861;52.294;7.760;2023-07-31T05:36:32;99010.38;;;18.57;69.59
30021;BME280;16861;52.294;7.760;2023-07-31T05:38:59;99014.75;;;18.58;69.33
30021;BME280;16861;52.294;7.760;2023-07-31T05:41:25;99013.75;;;18.59;69.31
30021;BME280;16861;52.294;7.760;2023-07-31T05:43:52;99014.59;;;18.59;69.63
30021;BME280;16861;52.294;7.760;2023-07-31T05:46:18;99005.59;;;18.60;69.44
30021;BME280;16861;52.294;7.760;2023-07-31T05:48:45;99012.59;;;18.61;69.49
30021;BME280;16861;52.294;7.760;2023-07-31T05:51:11;99007.09;;;18.63;69.48
30021;BME280;16861;52.294;7.760;2023-07-31T05:53:38;99000.78;;;18.64;69.13
30021;BME280;16861;52.294;7.760;2023-07-31T05:56:07;99002.44;;;18.65;69.40
30021;BME280;16861;52.294;7.760;2023-07-31T05:58:34;98999.75;;;18.65;69.04
30021;BME280;16861;52.294;7.760;2023-07-31T06:01:00;98988.28;;;18.65;69.26
30021;BME280;16861;52.294;7.760;2023-07-31T06:03:27;98993.63;;;18.65;69.02
30021;BME280;16861;52.294;7.760;2023-07-31T06:05:54;98991.97;;;18.64;69.24
30021;BME280;16861;52.294;7.760;2023-07-31T06:08:20;98985.78;;;18.63;69.31
30021;BME280;16861;52.294;7.760;2023-07-31T06:10:47;98989.59;;;18.60;68.92
30021;BME280;16861;52.294;7.760;2023-07-31T06:13:14;98992.41;;;18.59;68.87
30021;BME280;16861;52.294;7.760;2023-07-31T06:15:40;98994.56;;;18.55;69.00
30021;BME280;16861;52.294;7.760;2023-07-31T06:18:07;98986.72;;;18.54;69.16
30021;BME280;16861;52.294;7.760;2023-07-31T06:20:34;98988.56;;;18.53;69.30
30021;BME280;16861;52.294;7.760;2023-07-31T06:23:01;98991.53;;;18.50;69.36
30021;BME280;16861;52.294;7.760;2023-07-31T06:25:27;98998.38;;;18.53;69.35
30021;BME280;16861;52.294;7.760;2023-07-31T06:27:54;98992.38;;;18.51;69.70
30021;BME280;16861;52.294;7.760;2023-07-31T06:30:21;99001.88;;;18.53;69.72
30021;BME280;16861;52.294;7.760;2023-07-31T06:32:47;99001.56;;;18.56;69.92
30021;BME280;16861;52.294;7.760;2023-07-31T06:35:14;98994.22;;;18.58;69.77
30021;BME280;16861;52.294;7.760;2023-07-31T06:37:40;98999.41;;;18.60;69.62
30021;BME280;16861;52.294;7.760;2023-07-31T06:40:10;99004.59;;;18.61;69.69
30021;BME280;16861;52.294;7.760;2023-07-31T06:42:36;99001.78;;;18.63;69.38
30021;BME280;16861;52.294;7.760;2023-07-31T06:45:03;99010.63;;;18.64;69.70
30021;BME280;16861;52.294;7.760;2023-07-31T06:47:30;98998.94;;;18.65;69.41
30021;BME280;16861;52.294;7.760;2023-07-31T06:49:56;98995.44;;;18.64;69.57
30021;BME280;16861;52.294;7.760;2023-07-31T06:52:23;98998.78;;;18.66;69.67
30021;BME280;16861;52.294;7.760;2023-07-31T06:55:02;98990.09;;;18.64;70.47
30021;BME280;16861;52.294;7.760;2023-07-31T06:57:30;98990.63;;;18.68;69.56
30021;BME280;16861;52.294;7.760;2023-07-31T06:59:56;98980.66;;;18.70;69.79
30021;BME280;16861;52.294;7.760;2023-07-31T07:02:23;98983.16;;;18.71;69.30
30021;BME280;16861;52.294;7.760;2023-07-31T07:04:49;98989.16;;;18.73;69.70
30021;BME280;16861;52.294;7.760;2023-07-31T07:07:16;98982.00;;;18.74;69.81
30021;BME280;16861;52.294;7.760;2023-07-31T07:09:43;98991.34;;;18.78;69.77
30021;BME280;16861;52.294;7.760;2023-07-31T07:12:09;98977.84;;;18.80;69.57
30021;BME280;16861;52.294;7.760;2023-07-31T07:14:36;98976.84;;;18.81;69.57
30021;BME280;16861;52.294;7.760;2023-07-31T07:17:03;98983.03;;;18.81;69.70
30021;BME280;16861;52.294;7.760;2023-07-31T07:19:30;98972.38;;;18.81;69.69
30021;BME280;16861;52.294;7.760;2023-07-31T07:21:57;98986.38;;;18.83;69.49
30021;BME280;16861;52.294;7.760;2023-07-31T07:24:23;98979.38;;;18.82;69.82
30021;BME280;16861;52.294;7.760;2023-07-31T07:26:50;98978.38;;;18.83;69.69
30021;BME280;16861;52.294;7.760;2023-07-31T07:29:16;98972.88;;;18.85;69.85
30021;BME280;16861;52.294;7.760;2023-07-31T07:31:43;98966.69;;;18.84;69.88
30021;BME280;16861;52.294;7.760;2023-07-31T07:34:09;98964.88;;;18.85;69.47
30021;BME280;16861;52.294;7.760;2023-07-31T07:36:36;98961.38;;;18.84;69.80
30021;BME280;16861;52.294;7.760;2023-07-31T07:39:04;98964.03;;;18.84;69.78
30021;BME280;16861;52.294;7.760;2023-07-31T07:41:31;98964.03;;;18.84;70.00
30021;BME280;16861;52.294;7.760;2023-07-31T07:43:57;98962.38;;;18.83;69.92
30021;BME280;16861;52.294;7.760;2023-07-31T07:46:24;98959.69;;;18.83;70.10
30021;BME280;16861;52.294;7.760;2023-07-31T07:48:51;98959.69;;;18.83;70.02
30021;BME280;16861;52.294;7.760;2023-07-31T07:51:17;98954.38;;;18.83;70.25
30021;BME280;16861;52.294;7.760;2023-07-31T07:53:44;98951.53;;;18.85;70.61
30021;BME280;16861;52.294;7.760;2023-07-31T07:56:10;98949.72;;;18.85;70.67
30021;BME280;16861;52.294;7.760;2023-07-31T07:58:37;98939.72;;;18.87;70.70
30021;BME280;16861;52.294;7.760;2023-07-31T08:01:03;98936.75;;;18.91;70.68
30021;BME280;16861;52.294;7.760;2023-07-31T08:03:30;98933.72;;;18.94;70.80
30021;BME280;16861;52.294;7.760;2023-07-31T08:06:00;98941.56;;;18.95;71.59
30021;BME280;16861;52.294;7.760;2023-07-31T08:08:30;98935.91;;;18.98;71.43
30021;BME280;16861;52.294;7.760;2023-07-31T08:10:57;98922.09;;;19.03;70.74
30021;BME280;16861;52.294;7.760;2023-07-31T08:13:23;98917.47;;;19.05;71.14
30021;BME280;16861;52.294;7.760;2023-07-31T08:15:50;98920.47;;;19.10;71.21
30021;BME280;16861;52.294;7.760;2023-07-31T08:18:16;98914.81;;;19.13;71.37
30021;BME280;16861;52.294;7.760;2023-07-31T08:20:44;98914.50;;;19.17;71.52
30021;BME280;16861;52.294;7.760;2023-07-31T08:23:11;98905.97;;;19.21;71.38
30021;BME280;16861;52.294;7.760;2023-07-31T08:25:38;98901.16;;;19.25;71.71
30021;BME280;16861;52.294;7.760;2023-07-31T08:28:05;98894.50;;;19.29;71.49
30021;BME280;16861;52.294;7.760;2023-07-31T08:30:33;98901.16;;;19.33;71.58
30021;BME280;16861;52.294;7.760;2023-07-31T08:33:03;98894.47;;;19.37;71.63
30021;BME280;16861;52.294;7.760;2023-07-31T08:35:29;98894.16;;;19.40;71.49
30021;BME280;16861;52.294;7.760;2023-07-31T08:37:56;98884.16;;;19.43;71.44
30021;BME280;16861;52.294;7.760;2023-07-31T08:40:23;98890.00;;;19.46;71.30
30021;BME280;16861;52.294;7.760;2023-07-31T08:42:52;98888.81;;;19.49;71.57
30021;BME280;16861;52.294;7.760;2023-07-31T08:45:19;98886.63;;;19.52;71.95
30021;BME280;16861;52.294;7.760;2023-07-31T08:47:50;98895.34;;;19.55;72.07
30021;BME280;16861;52.294;7.760;2023-07-31T08:50:21;98889.66;;;19.58;72.05
30021;BME280;16861;52.294;7.760;2023-07-31T08:52:49;98882.31;;;19.60;71.53
30021;BME280;16861;52.294;7.760;2023-07-31T08:55:16;98875.81;;;19.62;71.48
30021;BME280;16861;52.294;7.760;2023-07-31T08:57:43;98876.66;;;19.63;71.54
30021;BME280;16861;52.294;7.760;2023-07-31T09:00:10;98884.50;;;19.64;71.49
30021;BME280;16861;52.294;7.760;2023-07-31T09:02:43;98884.50;;;19.64;71.99
30021;BME280;16861;52.294;7.760;2023-07-31T09:05:10;98886.97;;;19.66;71.57
30021;BME280;16861;52.294;7.760;2023-07-31T09:07:38;98876.47;;;19.73;71.18
30021;BME280;16861;52.294;7.760;2023-07-31T09:10:05;98871.13;;;19.73;71.23
30021;BME280;16861;52.294;7.760;2023-07-31T09:12:31;98881.81;;;19.73;71.51
30021;BME280;16861;52.294;7.760;2023-07-31T09:14:58;98870.13;;;19.74;71.52
30021;BME280;16861;52.294;7.760;2023-07-31T09:17:35;98879.16;;;19.73;72.25
30021;BME280;16861;52.294;7.760;2023-07-31T09:20:19;98873.13;;;19.71;72.80
30021;BME280;16861;52.294;7.760;2023-07-31T09:22:50;98879.78;;;19.75;71.67
30021;BME280;16861;52.294;7.760;2023-07-31T09:27:54;98868.28;;;19.74;72.56
30021;BME280;16861;52.294;7.760;2023-07-31T09:30:21;98863.28;;;19.79;72.08
30021;BME280;16861;52.294;7.760;2023-07-31T09:32:49;98858.75;;;19.80;71.95
30021;BME280;16861;52.294;7.760;2023-07-31T09:35:28;98866.94;;;19.78;72.80
30021;BME280;16861;52.294;7.760;2023-07-31T09:37:58;98870.94;;;19.83;72.22
30021;BME280;16861;52.294;7.760;2023-07-31T09:40:35;98859.25;;;19.84;71.88
30021;BME280;16861;52.294;7.760;2023-07-31T09:43:07;98858.41;;;19.83;72.54
30021;BME280;16861;52.294;7.760;2023-07-31T09:45:35;98863.44;;;19.86;72.00
30021;BME280;16861;52.294;7.760;2023-07-31T09:48:09;98857.88;;;19.88;72.28
30021;BME280;16861;52.294;7.760;2023-07-31T09:50:38;98860.41;;;19.89;72.37
30021;BME280;16861;52.294;7.760;2023-07-31T09:53:06;98859.41;;;19.90;72.15
30021;BME280;16861;52.294;7.760;2023-07-31T09:55:34;98852.91;;;19.93;72.08
30021;BME280;16861;52.294;7.760;2023-07-31T09:58:06;98866.91;;;19.95;72.43
30021;BME280;16861;52.294;7.760;2023-07-31T10:00:33;98854.22;;;19.97;71.85
30021;BME280;16861;52.294;7.760;2023-07-31T10:03:03;98854.91;;;19.99;71.97
30021;BME280;16861;52.294;7.760;2023-07-31T10:05:53;98862.91;;;19.99;72.37
30021;BME280;16861;52.294;7.760;2023-07-31T10:08:26;98855.38;;;20.03;71.85
30021;BME280;16861;52.294;7.760;2023-07-31T10:10:58;98853.56;;;20.03;72.11
30021;BME280;16861;52.294;7.760;2023-07-31T10:13:27;98845.53;;;20.03;71.82
30021;BME280;16861;52.294;7.760;2023-07-31T10:15:54;98845.53;;;20.03;71.45
30021;BME280;16861;52.294;7.760;2023-07-31T10:18:25;98832.34;;;20.02;71.58
30021;BME280;16861;52.294;7.760;2023-07-31T10:20:53;98841.38;;;20.01;71.67
30021;BME280;16861;52.294;7.760;2023-07-31T10:23:22;98845.22;;;19.98;71.89
30021;BME280;16861;52.294;7.760;2023-07-31T10:25:52;98841.03;;;19.96;72.13
30021;BME280;16861;52.294;7.760;2023-07-31T10:28:20;98844.53;;;19.96;71.83
30021;BME280;16861;52.294;7.760;2023-07-31T10:30:47;98838.53;;;19.94;71.89
30021;BME280;16861;52.294;7.760;2023-07-31T10:33:16;98838.53;;;19.94;71.61
30021;BME280;16861;52.294;7.760;2023-07-31T10:35:47;98836.88;;;19.93;71.99
30021;BME280;16861;52.294;7.760;2023-07-31T10:38:14;98833.34;;;19.92;72.13
30021;BME280;16861;52.294;7.760;2023-07-31T10:40:40;98830.69;;;19.92;72.14
30021;BME280;16861;52.294;7.760;2023-07-31T10:43:07;98843.03;;;19.93;71.96
30021;BME280;16861;52.294;7.760;2023-07-31T10:45:39;98834.19;;;19.93;72.02
30021;BME280;16861;52.294;7.760;2023-07-31T10:48:15;98834.38;;;19.91;72.72
30021;BME280;16861;52.294;7.760;2023-07-31T10:50:49;98835.00;;;19.93;73.07
30021;BME280;16861;52.294;7.760;2023-07-31T10:53:24;98833.84;;;19.96;73.07
30021;BME280;16861;52.294;7.760;2023-07-31T10:55:52;98829.69;;;20.02;72.80
30021;BME280;16861;52.294;7.760;2023-07-31T10:58:19;98823.00;;;20.06;72.77
30021;BME280;16861;52.294;7.760;2023-07-31T11:00:47;98838.69;;;20.09;72.64
30021;BME280;16861;52.294;7.760;2023-07-31T11:03:16;98831.31;;;20.11;72.26
30021;BME280;16861;52.294;7.760;2023-07-31T11:05:56;98834.00;;;20.11;72.88
30021;BME280;16861;52.294;7.760;2023-07-31T11:08:27;98831.47;;;20.18;72.09
30021;BME280;16861;52.294;7.760;2023-07-31T11:13:30;98823.94;;;20.22;72.21
30021;BME280;16861;52.294;7.760;2023-07-31T11:15:57;98822.78;;;20.24;72.56
30021;BME280;16861;52.294;7.760;2023-07-31T11:18:25;98825.28;;;20.26;72.20
30021;BME280;16861;52.294;7.760;2023-07-31T11:20:53;98817.09;;;20.27;72.00
30021;BME280;16861;52.294;7.760;2023-07-31T11:23:21;98829.44;;;20.28;72.17
30021;BME280;16861;52.294;7.760;2023-07-31T11:25:49;98819.38;;;20.30;72.25
30021;BME280;16861;52.294;7.760;2023-07-31T11:28:17;98819.22;;;20.32;72.33
30021;BME280;16861;52.294;7.760;2023-07-31T11:30:45;98818.03;;;20.35;72.19
30021;BME280;16861;52.294;7.760;2023-07-31T11:33:13;98822.19;;;20.37;72.21
30021;BME280;16861;52.294;7.760;2023-07-31T11:35:45;98824.88;;;20.37;72.47
30021;BME280;16861;52.294;7.760;2023-07-31T11:38:21;98818.53;;;20.38;72.46
30021;BME280;16861;52.294;7.760;2023-07-31T11:40:52;98816.97;;;20.44;72.25
30021;BME280;16861;52.294;7.760;2023-07-31T11:43:26;98817.81;;;20.44;71.94
30021;BME280;16861;52.294;7.760;2023-07-31T11:46:04;98818.47;;;20.47;71.94
30021;BME280;16861;52.294;7.760;2023-07-31T11:48:37;98817.47;;;20.48;71.90
30021;BME280;16861;52.294;7.760;2023-07-31T11:51:08;98811.13;;;20.49;71.95
30021;BME280;16861;52.294;7.760;2023-07-31T11:53:47;98826.47;;;20.47;71.85
30021;BME280;16861;52.294;7.760;2023-07-31T11:56:17;98811.97;;;20.49;71.71
30021;BME280;16861;52.294;7.760;2023-07-31T11:58:46;98817.09;;;20.51;71.84
30021;BME280;16861;52.294;7.760;2023-07-31T12:01:18;98816.28;;;20.50;71.75
30021;BME280;16861;52.294;7.760;2023-07-31T12:03:47;98809.75;;;20.53;71.47
30021;BME280;16861;52.294;7.760;2023-07-31T12:06:14;98806.41;;;20.51;71.68
30021;BME280;16861;52.294;7.760;2023-07-31T12:08:40;98812.59;;;20.51;71.70
30021;BME280;16861;52.294;7.760;2023-07-31T12:11:08;98808.28;;;20.50;72.07
30021;BME280;16861;52.294;7.760;2023-07-31T12:13:39;98808.09;;;20.52;71.81
30021;BME280;16861;52.294;7.760;2023-07-31T12:16:06;98805.44;;;20.52;71.68
30021;BME280;16861;52.294;7.760;2023-07-31T12:18:35;98813.44;;;20.52;71.79
30021;BME280;16861;52.294;7.760;2023-07-31T12:21:04;98808.91;;;20.52;71.86
30021;BME280;16861;52.294;7.760;2023-07-31T12:23:33;98808.09;;;20.52;71.70
30021;BME280;16861;52.294;7.760;2023-07-31T12:26:10;98805.59;;;20.50;71.89
30021;BME280;16861;52.294;7.760;2023-07-31T12:28:40;98820.44;;;20.53;71.60
30021;BME280;16861;52.294;7.760;2023-07-31T12:31:12;98806.41;;;20.51;72.35
30021;BME280;16861;52.294;7.760;2023-07-31T12:33:40;98804.41;;;20.53;72.06
30021;BME280;16861;52.294;7.760;2023-07-31T12:36:13;98803.41;;;20.54;72.36
30021;BME280;16861;52.294;7.760;2023-07-31T12:38:40;98794.03;;;20.58;72.09
30021;BME280;16861;52.294;7.760;2023-07-31T12:41:07;98800.84;;;20.61;71.93
30021;BME280;16861;52.294;7.760;2023-07-31T12:43:35;98804.00;;;20.64;71.80
30021;BME280;16861;52.294;7.760;2023-07-31T12:46:03;98802.84;;;20.67;71.78
30021;BME280;16861;52.294;7.760;2023-07-31T12:48:31;98787.59;;;20.67;71.83
30021;BME280;16861;52.294;7.760;2023-07-31T12:50:58;98792.59;;;20.70;72.13
30021;BME280;16861;52.294;7.760;2023-07-31T12:53:24;98796.59;;;20.75;71.99
30021;BME280;16861;52.294;7.760;2023-07-31T12:55:51;98798.72;;;20.79;71.89
30021;BME280;16861;52.294;7.760;2023-07-31T12:58:18;98796.38;;;20.85;71.85
30021;BME280;16861;52.294;7.760;2023-07-31T13:00:44;98797.69;;;20.89;71.65
30021;BME280;16861;52.294;7.760;2023-07-31T13:03:11;98799.19;;;20.91;71.53
30021;BME280;16861;52.294;7.760;2023-07-31T13:05:38;98796.97;;;20.95;71.37
30021;BME280;16861;52.294;7.760;2023-07-31T13:08:04;98792.09;;;20.99;71.41
30021;BME280;16861;52.294;7.760;2023-07-31T13:10:33;98792.94;;;20.99;71.06
30021;BME280;16861;52.294;7.760;2023-07-31T13:13:00;98786.38;;;21.02;71.16
30021;BME280;16861;52.294;7.760;2023-07-31T13:15:27;98780.03;;;21.03;70.82
30021;BME280;16861;52.294;7.760;2023-07-31T13:17:53;98787.88;;;21.04;70.88
30021;BME280;16861;52.294;7.760;2023-07-31T13:20:20;98783.19;;;21.06;71.23